ANA374 RJFU-RJGG
Flight info
| Callsign | ANA374 |
|---|---|
| Flight time | 0h 59m |
| Altitude | 29000 |
| Route | OOITA Y41 NATCH Y755 CARDS |
| Aircraft | B738/M-SDE2E3FGHIRWXY/LB1 |
Departure
| Time | 2026-05-09 10:26 |
|---|---|
| Airport | Nagasaki Airport (RJFU) |
Arrival
| Time | 2026-05-09 11:26 |
|---|---|
| Airport | Chubu Centrair International Airport (RJGG) |
| Time | Latitude | Longitude | Altitude | Speed | Heading |
|---|---|---|---|---|---|
| 2026-05-09 10:08 | 32.91425 | 129.92138 | 15 ft | 0 kts | 48° |
| 2026-05-09 10:17 | 32.91421 | 129.92132 | 15 ft | 2 kts | 47° |
| 2026-05-09 10:17 | 32.91411 | 129.92120 | 15 ft | 2 kts | 48° |
| 2026-05-09 10:18 | 32.91402 | 129.92108 | 15 ft | 2 kts | 48° |
| 2026-05-09 10:18 | 32.91393 | 129.92096 | 15 ft | 2 kts | 48° |
| 2026-05-09 10:18 | 32.91383 | 129.92083 | 14 ft | 2 kts | 48° |
| 2026-05-09 10:18 | 32.91374 | 129.92071 | 14 ft | 2 kts | 48° |
| 2026-05-09 10:19 | 32.91364 | 129.92058 | 18 ft | 2 kts | 49° |
| 2026-05-09 10:19 | 32.91355 | 129.92046 | 16 ft | 2 kts | 50° |
| 2026-05-09 10:19 | 32.91347 | 129.92033 | 15 ft | 2 kts | 54° |
| 2026-05-09 10:19 | 32.91340 | 129.92021 | 14 ft | 2 kts | 69° |
| 2026-05-09 10:20 | 32.91338 | 129.92009 | 14 ft | 1 kts | 111° |
| 2026-05-09 10:20 | 32.91341 | 129.92002 | 18 ft | 1 kts | 129° |
| 2026-05-09 10:20 | 32.91344 | 129.91997 | 18 ft | 1 kts | 135° |
| 2026-05-09 10:20 | 32.91346 | 129.91995 | 17 ft | 0 kts | 137° |
| 2026-05-09 10:22 | 32.91344 | 129.91997 | 18 ft | 1 kts | 137° |
| 2026-05-09 10:22 | 32.91329 | 129.92013 | 15 ft | 5 kts | 137° |
| 2026-05-09 10:23 | 32.91296 | 129.92050 | 16 ft | 8 kts | 137° |
| 2026-05-09 10:23 | 32.91246 | 129.92104 | 15 ft | 11 kts | 138° |
| 2026-05-09 10:23 | 32.91181 | 129.92171 | 17 ft | 13 kts | 139° |
| 2026-05-09 10:23 | 32.91107 | 129.92247 | 19 ft | 15 kts | 139° |
| 2026-05-09 10:24 | 32.91026 | 129.92334 | 21 ft | 16 kts | 137° |
| 2026-05-09 10:24 | 32.90943 | 129.92423 | 20 ft | 16 kts | 138° |
| 2026-05-09 10:24 | 32.90857 | 129.92514 | 21 ft | 16 kts | 139° |
| 2026-05-09 10:24 | 32.90761 | 129.92492 | 28 ft | 16 kts | 228° |
| 2026-05-09 10:25 | 32.90731 | 129.92381 | 27 ft | 16 kts | 300° |
| 2026-05-09 10:25 | 32.90758 | 129.92347 | 27 ft | 0 kts | 318° |
| 2026-05-09 10:25 | 32.90796 | 129.92307 | 24 ft | 28 kts | 318° |
| 2026-05-09 10:25 | 32.91103 | 129.91979 | 20 ft | 89 kts | 318° |
| 2026-05-09 10:26 | 32.91689 | 129.91354 | 17 ft | 135 kts | 317° |
| 2026-05-09 10:26 | 32.92456 | 129.90513 | 145 ft | 160 kts | 317° |
| 2026-05-09 10:26 | 32.93289 | 129.89643 | 653 ft | 163 kts | 316° |
| 2026-05-09 10:26 | 32.94136 | 129.88731 | 1336 ft | 155 kts | 318° |
| 2026-05-09 10:27 | 32.94927 | 129.87880 | 1885 ft | 162 kts | 318° |
| 2026-05-09 10:27 | 32.95843 | 129.86898 | 2126 ft | 190 kts | 319° |
| 2026-05-09 10:27 | 32.96883 | 129.85786 | 2315 ft | 212 kts | 318° |
| 2026-05-09 10:27 | 32.98034 | 129.84558 | 2485 ft | 234 kts | 319° |
| 2026-05-09 10:28 | 32.99293 | 129.83217 | 2911 ft | 248 kts | 318° |
| 2026-05-09 10:28 | 33.00638 | 129.81922 | 3614 ft | 251 kts | 332° |
| 2026-05-09 10:28 | 33.02322 | 129.81408 | 4385 ft | 254 kts | 359° |
| 2026-05-09 10:28 | 33.04041 | 129.81906 | 5089 ft | 261 kts | 26° |
| 2026-05-09 10:29 | 33.05471 | 129.83268 | 5822 ft | 267 kts | 44° |
| 2026-05-09 10:29 | 33.06724 | 129.84917 | 6568 ft | 270 kts | 46° |
| 2026-05-09 10:29 | 33.07970 | 129.86611 | 7257 ft | 273 kts | 46° |
| 2026-05-09 10:29 | 33.09242 | 129.88328 | 7949 ft | 279 kts | 45° |
| 2026-05-09 10:30 | 33.10542 | 129.90064 | 8694 ft | 283 kts | 45° |
| 2026-05-09 10:30 | 33.11869 | 129.91822 | 9445 ft | 287 kts | 44° |
| 2026-05-09 10:30 | 33.13214 | 129.93600 | 10177 ft | 292 kts | 44° |
| 2026-05-09 10:30 | 33.14477 | 129.95585 | 10533 ft | 316 kts | 61° |
| 2026-05-09 10:31 | 33.14944 | 129.98229 | 10849 ft | 341 kts | 92° |
| 2026-05-09 10:31 | 33.14258 | 130.00954 | 11485 ft | 350 kts | 120° |
| 2026-05-09 10:31 | 33.12860 | 130.03344 | 12216 ft | 353 kts | 127° |
| 2026-05-09 10:31 | 33.11397 | 130.05720 | 12896 ft | 360 kts | 126° |
| 2026-05-09 10:32 | 33.09944 | 130.08186 | 13568 ft | 367 kts | 125° |
| 2026-05-09 10:32 | 33.08495 | 130.10717 | 14252 ft | 372 kts | 124° |
| 2026-05-09 10:32 | 33.07045 | 130.13293 | 14943 ft | 376 kts | 125° |
| 2026-05-09 10:32 | 33.05585 | 130.15893 | 15650 ft | 381 kts | 125° |
| 2026-05-09 10:33 | 33.04098 | 130.18534 | 16305 ft | 386 kts | 126° |
| 2026-05-09 10:33 | 33.02589 | 130.21207 | 16927 ft | 391 kts | 126° |
| 2026-05-09 10:33 | 33.01066 | 130.23904 | 17406 ft | 395 kts | 126° |
| 2026-05-09 10:33 | 32.99526 | 130.26643 | 18053 ft | 400 kts | 124° |
| 2026-05-09 10:34 | 32.98433 | 130.29714 | 18663 ft | 408 kts | 102° |
| 2026-05-09 10:34 | 32.98736 | 130.36444 | 19708 ft | 416 kts | 75° |
| 2026-05-09 10:34 | 32.99377 | 130.39837 | 20192 ft | 423 kts | 74° |
| 2026-05-09 10:35 | 33.00046 | 130.43283 | 20663 ft | 430 kts | 75° |
| 2026-05-09 10:35 | 33.00711 | 130.46785 | 21182 ft | 436 kts | 75° |
| 2026-05-09 10:35 | 33.01363 | 130.50330 | 21677 ft | 442 kts | 76° |
| 2026-05-09 10:35 | 33.01997 | 130.53871 | 22146 ft | 448 kts | 76° |
| 2026-05-09 10:36 | 33.02648 | 130.57555 | 22623 ft | 454 kts | 76° |
| 2026-05-09 10:36 | 33.03308 | 130.61304 | 23113 ft | 460 kts | 76° |
| 2026-05-09 10:36 | 33.03961 | 130.65007 | 23584 ft | 465 kts | 77° |
| 2026-05-09 10:36 | 33.04630 | 130.68811 | 23970 ft | 471 kts | 77° |
| 2026-05-09 10:37 | 33.05302 | 130.72640 | 24411 ft | 474 kts | 77° |
| 2026-05-09 10:37 | 33.05977 | 130.76500 | 24970 ft | 476 kts | 77° |
| 2026-05-09 10:37 | 33.06649 | 130.80348 | 25651 ft | 472 kts | 77° |
| 2026-05-09 10:37 | 33.07315 | 130.84169 | 26315 ft | 470 kts | 78° |
| 2026-05-09 10:38 | 33.07977 | 130.87972 | 26972 ft | 468 kts | 78° |
| 2026-05-09 10:38 | 33.08637 | 130.91774 | 27453 ft | 470 kts | 78° |
| 2026-05-09 10:38 | 33.09302 | 130.95606 | 27798 ft | 475 kts | 78° |
| 2026-05-09 10:38 | 33.09977 | 130.99505 | 27951 ft | 485 kts | 78° |
| 2026-05-09 10:39 | 33.10654 | 131.03426 | 28567 ft | 482 kts | 79° |
| 2026-05-09 10:39 | 33.11324 | 131.07311 | 29103 ft | 475 kts | 79° |
| 2026-05-09 10:39 | 33.12675 | 131.15179 | 29163 ft | 494 kts | 79° |
| 2026-05-09 10:40 | 33.14075 | 131.23356 | 29162 ft | 511 kts | 79° |
| 2026-05-09 10:40 | 33.15517 | 131.31815 | 29138 ft | 528 kts | 79° |
| 2026-05-09 10:41 | 33.16990 | 131.40497 | 29125 ft | 536 kts | 79° |
| 2026-05-09 10:41 | 33.18457 | 131.49169 | 29132 ft | 530 kts | 79° |
| 2026-05-09 10:42 | 33.19910 | 131.57807 | 29142 ft | 532 kts | 79° |
| 2026-05-09 10:42 | 33.21366 | 131.66499 | 29131 ft | 535 kts | 79° |
| 2026-05-09 10:43 | 33.22830 | 131.75221 | 29116 ft | 536 kts | 79° |
| 2026-05-09 10:43 | 33.24319 | 131.83957 | 29117 ft | 537 kts | 79° |
| 2026-05-09 10:44 | 33.25807 | 131.92707 | 29113 ft | 537 kts | 79° |
| 2026-05-09 10:44 | 33.27285 | 132.01460 | 29117 ft | 537 kts | 79° |
| 2026-05-09 10:46 | 33.30934 | 132.23281 | 29118 ft | 536 kts | 79° |
| 2026-05-09 10:46 | 33.32374 | 132.31964 | 29118 ft | 536 kts | 79° |
| 2026-05-09 10:47 | 33.33819 | 132.40704 | 29131 ft | 536 kts | 80° |
| 2026-05-09 10:47 | 33.35286 | 132.49464 | 29117 ft | 539 kts | 78° |
| 2026-05-09 10:48 | 33.37213 | 132.58129 | 29119 ft | 539 kts | 74° |
| 2026-05-09 10:48 | 33.39317 | 132.66717 | 29119 ft | 537 kts | 74° |
| 2026-05-09 10:49 | 33.41363 | 132.75319 | 29138 ft | 537 kts | 75° |
| 2026-05-09 10:49 | 33.43352 | 132.83925 | 29132 ft | 537 kts | 75° |
| 2026-05-09 10:50 | 33.45333 | 132.92541 | 29133 ft | 536 kts | 75° |
| 2026-05-09 10:50 | 33.47313 | 133.01152 | 29133 ft | 537 kts | 75° |
| 2026-05-09 10:51 | 33.49278 | 133.09794 | 29131 ft | 538 kts | 75° |
| 2026-05-09 10:51 | 33.51221 | 133.18391 | 29142 ft | 539 kts | 74° |
| 2026-05-09 10:52 | 33.53188 | 133.27062 | 29151 ft | 540 kts | 75° |
| 2026-05-09 10:52 | 33.55165 | 133.35774 | 29144 ft | 542 kts | 75° |
| 2026-05-09 10:53 | 33.57140 | 133.44514 | 29146 ft | 545 kts | 75° |
| 2026-05-09 10:53 | 33.59116 | 133.53300 | 29136 ft | 546 kts | 75° |
| 2026-05-09 10:54 | 33.61086 | 133.62088 | 29128 ft | 546 kts | 75° |
| 2026-05-09 10:54 | 33.63047 | 133.70871 | 29139 ft | 544 kts | 75° |
| 2026-05-09 10:55 | 33.64995 | 133.79627 | 29139 ft | 543 kts | 75° |
| 2026-05-09 10:55 | 33.66940 | 133.88394 | 29154 ft | 544 kts | 76° |
| 2026-05-09 10:56 | 33.68878 | 133.97173 | 29150 ft | 544 kts | 76° |
| 2026-05-09 10:56 | 33.70519 | 134.06022 | 29149 ft | 541 kts | 86° |
| 2026-05-09 10:57 | 33.70597 | 134.14980 | 29166 ft | 535 kts | 96° |
| 2026-05-09 10:57 | 33.70320 | 134.23915 | 29138 ft | 535 kts | 96° |
| 2026-05-09 10:58 | 33.70103 | 134.32843 | 29154 ft | 536 kts | 95° |
| 2026-05-09 10:58 | 33.69935 | 134.41811 | 29153 ft | 537 kts | 95° |
| 2026-05-09 10:59 | 33.69769 | 134.50790 | 29116 ft | 538 kts | 95° |
| 2026-05-09 10:59 | 33.69589 | 134.59762 | 29139 ft | 538 kts | 95° |
| 2026-05-09 11:00 | 33.69410 | 134.68575 | 29115 ft | 511 kts | 96° |
| 2026-05-09 11:00 | 33.69324 | 134.72762 | 29110 ft | 495 kts | 96° |
| 2026-05-09 11:00 | 33.69239 | 134.76833 | 29115 ft | 480 kts | 96° |
| 2026-05-09 11:00 | 33.69153 | 134.80788 | 28948 ft | 470 kts | 96° |
| 2026-05-09 11:01 | 33.69064 | 134.84692 | 28649 ft | 465 kts | 97° |
| 2026-05-09 11:01 | 33.68974 | 134.88557 | 28270 ft | 462 kts | 96° |
| 2026-05-09 11:01 | 33.68883 | 134.92455 | 27900 ft | 459 kts | 96° |
| 2026-05-09 11:01 | 33.68795 | 134.96220 | 27544 ft | 456 kts | 96° |
| 2026-05-09 11:02 | 33.68752 | 135.00067 | 27155 ft | 456 kts | 90° |
| 2026-05-09 11:02 | 33.69155 | 135.03854 | 26779 ft | 458 kts | 79° |
| 2026-05-09 11:02 | 33.70020 | 135.07517 | 26462 ft | 454 kts | 69° |
| 2026-05-09 11:02 | 33.71324 | 135.10946 | 26120 ft | 450 kts | 59° |
| 2026-05-09 11:03 | 33.72296 | 135.13139 | 25896 ft | 448 kts | 58° |
| 2026-05-09 11:03 | 33.73790 | 135.16411 | 25530 ft | 446 kts | 58° |
| 2026-05-09 11:03 | 33.75293 | 135.19677 | 25143 ft | 446 kts | 58° |
| 2026-05-09 11:03 | 33.76779 | 135.22923 | 24779 ft | 445 kts | 58° |
| 2026-05-09 11:04 | 33.78745 | 135.27267 | 24277 ft | 445 kts | 58° |
| 2026-05-09 11:04 | 33.80212 | 135.30542 | 23902 ft | 444 kts | 58° |
| 2026-05-09 11:04 | 33.81198 | 135.32752 | 23643 ft | 444 kts | 59° |
| 2026-05-09 11:04 | 33.82651 | 135.36022 | 23217 ft | 443 kts | 58° |
| 2026-05-09 11:05 | 33.84096 | 135.39285 | 22832 ft | 441 kts | 58° |
| 2026-05-09 11:05 | 33.85533 | 135.42535 | 22460 ft | 438 kts | 59° |
| 2026-05-09 11:05 | 33.86959 | 135.45759 | 22090 ft | 436 kts | 58° |
| 2026-05-09 11:05 | 33.88380 | 135.48971 | 21734 ft | 433 kts | 58° |
| 2026-05-09 11:06 | 33.89792 | 135.52166 | 21363 ft | 431 kts | 59° |
| 2026-05-09 11:06 | 33.91194 | 135.55342 | 21005 ft | 428 kts | 59° |
| 2026-05-09 11:06 | 33.92586 | 135.58501 | 20653 ft | 426 kts | 58° |
| 2026-05-09 11:06 | 33.93971 | 135.61643 | 20298 ft | 424 kts | 59° |
| 2026-05-09 11:07 | 33.95347 | 135.64767 | 19936 ft | 421 kts | 59° |
| 2026-05-09 11:07 | 33.96715 | 135.67877 | 19582 ft | 419 kts | 59° |
| 2026-05-09 11:07 | 33.98074 | 135.70968 | 19250 ft | 417 kts | 59° |
| 2026-05-09 11:07 | 33.99432 | 135.74059 | 18864 ft | 418 kts | 59° |
| 2026-05-09 11:08 | 34.00787 | 135.77151 | 18496 ft | 416 kts | 59° |
| 2026-05-09 11:08 | 34.02135 | 135.80228 | 18105 ft | 413 kts | 59° |
| 2026-05-09 11:08 | 34.03468 | 135.83272 | 17728 ft | 410 kts | 59° |
| 2026-05-09 11:08 | 34.04776 | 135.86263 | 17327 ft | 406 kts | 58° |
| 2026-05-09 11:09 | 34.06103 | 135.89298 | 16991 ft | 402 kts | 59° |
| 2026-05-09 11:09 | 34.07397 | 135.92262 | 16586 ft | 398 kts | 59° |
| 2026-05-09 11:09 | 34.08664 | 135.95165 | 16190 ft | 395 kts | 59° |
| 2026-05-09 11:09 | 34.09937 | 135.98084 | 15837 ft | 392 kts | 59° |
| 2026-05-09 11:10 | 34.11200 | 136.00983 | 15513 ft | 387 kts | 59° |
| 2026-05-09 11:10 | 34.12452 | 136.03854 | 15143 ft | 386 kts | 60° |
| 2026-05-09 11:10 | 34.13700 | 136.06720 | 14782 ft | 384 kts | 60° |
| 2026-05-09 11:10 | 34.14925 | 136.09545 | 14473 ft | 380 kts | 60° |
| 2026-05-09 11:11 | 34.16157 | 136.12380 | 14093 ft | 379 kts | 60° |
| 2026-05-09 11:11 | 34.17378 | 136.15193 | 13747 ft | 376 kts | 60° |
| 2026-05-09 11:11 | 34.18599 | 136.17968 | 13366 ft | 371 kts | 56° |
| 2026-05-09 11:11 | 34.20174 | 136.20370 | 13058 ft | 360 kts | 37° |
| 2026-05-09 11:12 | 34.22112 | 136.22199 | 12824 ft | 350 kts | 31° |
| 2026-05-09 11:12 | 34.24051 | 136.23923 | 12557 ft | 343 kts | 31° |
| 2026-05-09 11:12 | 34.25956 | 136.25614 | 12301 ft | 337 kts | 31° |
| 2026-05-09 11:12 | 34.27825 | 136.27285 | 12075 ft | 332 kts | 30° |
| 2026-05-09 11:13 | 34.29662 | 136.28940 | 11815 ft | 327 kts | 31° |
| 2026-05-09 11:13 | 34.31467 | 136.30576 | 11581 ft | 322 kts | 32° |
| 2026-05-09 11:13 | 34.33245 | 136.32193 | 11281 ft | 320 kts | 32° |
| 2026-05-09 11:13 | 34.35021 | 136.33810 | 10983 ft | 319 kts | 32° |
| 2026-05-09 11:14 | 34.36784 | 136.35420 | 10684 ft | 317 kts | 32° |
| 2026-05-09 11:14 | 34.38540 | 136.37026 | 10364 ft | 316 kts | 32° |
| 2026-05-09 11:14 | 34.40287 | 136.38623 | 10134 ft | 312 kts | 32° |
| 2026-05-09 11:14 | 34.41897 | 136.40370 | 9855 ft | 315 kts | 50° |
| 2026-05-09 11:15 | 34.42928 | 136.42701 | 9644 ft | 313 kts | 63° |
| 2026-05-09 11:15 | 34.43798 | 136.45105 | 9317 ft | 311 kts | 64° |
| 2026-05-09 11:15 | 34.44652 | 136.47508 | 9015 ft | 309 kts | 64° |
| 2026-05-09 11:15 | 34.45504 | 136.49893 | 8706 ft | 307 kts | 64° |
| 2026-05-09 11:16 | 34.46356 | 136.52260 | 8411 ft | 306 kts | 64° |
| 2026-05-09 11:16 | 34.47208 | 136.54609 | 8107 ft | 304 kts | 64° |
| 2026-05-09 11:16 | 34.48058 | 136.56945 | 7820 ft | 302 kts | 64° |
| 2026-05-09 11:16 | 34.48902 | 136.59262 | 7518 ft | 300 kts | 63° |
| 2026-05-09 11:17 | 34.49741 | 136.61568 | 7219 ft | 298 kts | 63° |
| 2026-05-09 11:17 | 34.50576 | 136.63861 | 6938 ft | 296 kts | 63° |
| 2026-05-09 11:17 | 34.51408 | 136.66142 | 6648 ft | 295 kts | 63° |
| 2026-05-09 11:17 | 34.52235 | 136.68415 | 6342 ft | 294 kts | 63° |
| 2026-05-09 11:18 | 34.53058 | 136.70674 | 6033 ft | 293 kts | 63° |
| 2026-05-09 11:18 | 34.53878 | 136.72930 | 5737 ft | 292 kts | 63° |
| 2026-05-09 11:18 | 34.54694 | 136.75175 | 5438 ft | 290 kts | 63° |
| 2026-05-09 11:18 | 34.55472 | 136.77318 | 5163 ft | 288 kts | 63° |
| 2026-05-09 11:19 | 34.56287 | 136.79564 | 4872 ft | 286 kts | 63° |
| 2026-05-09 11:19 | 34.57075 | 136.81737 | 4595 ft | 284 kts | 63° |
| 2026-05-09 11:19 | 34.57906 | 136.83891 | 4299 ft | 280 kts | 53° |
| 2026-05-09 11:19 | 34.59243 | 136.85492 | 4065 ft | 264 kts | 25° |
| 2026-05-09 11:20 | 34.60899 | 136.86188 | 4013 ft | 244 kts | 4° |
| 2026-05-09 11:20 | 34.62517 | 136.86151 | 4015 ft | 225 kts | 346° |
| 2026-05-09 11:20 | 34.64015 | 136.85800 | 4003 ft | 214 kts | 345° |
| 2026-05-09 11:20 | 34.65435 | 136.85455 | 3996 ft | 202 kts | 345° |
| 2026-05-09 11:21 | 34.66809 | 136.85121 | 3958 ft | 203 kts | 345° |
| 2026-05-09 11:21 | 34.68249 | 136.84770 | 3307 ft | 213 kts | 346° |
| 2026-05-09 11:21 | 34.69663 | 136.84431 | 2970 ft | 201 kts | 346° |
| 2026-05-09 11:21 | 34.70986 | 136.84114 | 2688 ft | 187 kts | 346° |
| 2026-05-09 11:22 | 34.72216 | 136.83818 | 2477 ft | 173 kts | 346° |
| 2026-05-09 11:22 | 34.73354 | 136.83544 | 2251 ft | 161 kts | 346° |
| 2026-05-09 11:22 | 34.74398 | 136.83293 | 2069 ft | 143 kts | 347° |
| 2026-05-09 11:22 | 34.75312 | 136.83073 | 1895 ft | 123 kts | 346° |
| 2026-05-09 11:23 | 34.76174 | 136.82865 | 1708 ft | 127 kts | 346° |
| 2026-05-09 11:23 | 34.77030 | 136.82659 | 1542 ft | 124 kts | 346° |
| 2026-05-09 11:23 | 34.77878 | 136.82454 | 1383 ft | 125 kts | 346° |
| 2026-05-09 11:23 | 34.78733 | 136.82248 | 1215 ft | 125 kts | 347° |
| 2026-05-09 11:24 | 34.79582 | 136.82045 | 1123 ft | 125 kts | 347° |
| 2026-05-09 11:24 | 34.80440 | 136.81839 | 924 ft | 126 kts | 346° |
| 2026-05-09 11:24 | 34.81296 | 136.81633 | 712 ft | 128 kts | 346° |
| 2026-05-09 11:24 | 34.82172 | 136.81423 | 496 ft | 128 kts | 344° |
| 2026-05-09 11:25 | 34.83040 | 136.81214 | 316 ft | 127 kts | 344° |
| 2026-05-09 11:25 | 34.83908 | 136.81005 | 150 ft | 127 kts | 343° |
| 2026-05-09 11:25 | 34.84770 | 136.80794 | 43 ft | 122 kts | 343° |
| 2026-05-09 11:25 | 34.85495 | 136.80630 | 22 ft | 74 kts | 348° |
| 2026-05-09 11:26 | 34.85920 | 136.80630 | 26 ft | 47 kts | 19° |
| 2026-05-09 11:26 | 34.85942 | 136.80760 | 27 ft | 17 kts | 162° |
| 2026-05-09 11:26 | 34.85829 | 136.80785 | 27 ft | 16 kts | 170° |
| 2026-05-09 11:26 | 34.85721 | 136.80809 | 27 ft | 16 kts | 168° |
| 2026-05-09 11:27 | 34.85617 | 136.80836 | 27 ft | 15 kts | 168° |
| 2026-05-09 11:27 | 34.85574 | 136.80923 | 27 ft | 14 kts | 59° |
| 2026-05-09 11:27 | 34.85664 | 136.80939 | 27 ft | 14 kts | 348° |
| 2026-05-09 11:27 | 34.85754 | 136.80915 | 27 ft | 13 kts | 348° |
| 2026-05-09 11:28 | 34.85842 | 136.80893 | 27 ft | 13 kts | 348° |
| 2026-05-09 11:28 | 34.85928 | 136.80875 | 27 ft | 12 kts | 349° |
| 2026-05-09 11:28 | 34.85985 | 136.80936 | 27 ft | 12 kts | 77° |
| 2026-05-09 11:28 | 34.86002 | 136.81035 | 28 ft | 12 kts | 79° |
| 2026-05-09 11:29 | 34.86016 | 136.81133 | 28 ft | 12 kts | 79° |
| 2026-05-09 11:29 | 34.86011 | 136.81225 | 28 ft | 11 kts | 119° |
| 2026-05-09 11:29 | 34.85985 | 136.81280 | 28 ft | 0 kts | 120° |